METAR Data
IDs: Format: Raw Decoded Include TAF

Data at: 0731 UTC 18 Sep 2021

LRAR 180700Z 28006KT 250V310 CAVOK 14/12 Q1013